createdAt,value
2022-07-25T00:00:54.335Z,98328.44
2022-07-25T00:01:57.403Z,98325.75
2022-07-25T00:03:00.659Z,98326.28
2022-07-25T00:04:06.183Z,98318.97
2022-07-25T00:05:10.282Z,98321.53
2022-07-25T00:06:17.685Z,98326.97
2022-07-25T00:07:21.105Z,98329.91
2022-07-25T00:08:23.974Z,98326.03
2022-07-25T00:09:26.947Z,98321.75
2022-07-25T00:10:29.990Z,98319.13
2022-07-25T00:11:33.328Z,98319.03
2022-07-25T00:12:36.641Z,98321.72
2022-07-25T00:13:39.612Z,98311.47
2022-07-25T00:14:42.627Z,98323.66
2022-07-25T00:15:45.740Z,98311.38
2022-07-25T00:16:48.638Z,98315.59
2022-07-25T00:17:51.656Z,98315.59
2022-07-25T00:18:54.663Z,98318.59
2022-07-25T00:19:57.661Z,98319.00
2022-07-25T00:21:00.781Z,98312.47
2022-07-25T00:22:03.916Z,98316.34
2022-07-25T00:23:06.929Z,98310.91
2022-07-25T00:24:10.755Z,98307.53
2022-07-25T00:25:14.394Z,98310.16
2022-07-25T00:26:17.425Z,98308.59
2022-07-25T00:27:20.390Z,98307.06
2022-07-25T00:28:23.393Z,98308.91
2022-07-25T00:29:26.395Z,98312.59
2022-07-25T00:30:29.529Z,98310.72
2022-07-25T00:31:32.608Z,98308.50
2022-07-25T00:32:35.701Z,98302.81
2022-07-25T00:33:41.833Z,98304.97
2022-07-25T00:34:44.896Z,98300.72
2022-07-25T00:35:48.009Z,98311.38
2022-07-25T00:36:51.081Z,98304.81
2022-07-25T00:37:54.391Z,98307.97
2022-07-25T00:38:57.399Z,98304.16
2022-07-25T00:40:00.309Z,98305.66
2022-07-25T00:41:04.176Z,98312.12
2022-07-25T00:42:07.405Z,98305.44
2022-07-25T00:43:10.833Z,98302.34
2022-07-25T00:44:28.682Z,98308.72
2022-07-25T00:45:32.236Z,98306.31
2022-07-25T00:46:39.747Z,98305.25
2022-07-25T00:47:50.922Z,98307.19
2022-07-25T00:48:54.050Z,98308.37
2022-07-25T00:49:56.977Z,98305.28
2022-07-25T00:51:00.385Z,98308.69
2022-07-25T00:52:03.648Z,98310.47
2022-07-25T00:53:06.653Z,98304.38
2022-07-25T00:54:11.083Z,98308.53
2022-07-25T00:55:14.231Z,98305.78
2022-07-25T00:56:17.541Z,98306.12
2022-07-25T00:57:22.035Z,98312.69
2022-07-25T00:58:25.065Z,98307.69
2022-07-25T00:59:28.096Z,98314.09
2022-07-25T01:00:31.308Z,98311.47
2022-07-25T01:01:34.435Z,98304.84
2022-07-25T01:02:37.605Z,98307.06
2022-07-25T01:03:40.702Z,98315.41
2022-07-25T01:04:43.670Z,98309.69
2022-07-25T01:05:51.594Z,98307.44
2022-07-25T01:06:56.573Z,98307.75
2022-07-25T01:07:59.908Z,98304.75
2022-07-25T01:09:03.145Z,98307.06
2022-07-25T01:10:07.514Z,98311.22
2022-07-25T01:11:11.250Z,98303.09
2022-07-25T01:12:14.342Z,98304.06
2022-07-25T01:13:17.717Z,98308.22
2022-07-25T01:14:21.914Z,98306.16
2022-07-25T01:15:25.948Z,98308.69
2022-07-25T01:16:29.163Z,98304.25
2022-07-25T01:17:32.182Z,98304.13
2022-07-25T01:18:35.522Z,98302.03
2022-07-25T01:19:38.585Z,98298.03
2022-07-25T01:20:41.651Z,98310.25
2022-07-25T01:21:44.653Z,98304.50
2022-07-25T01:22:48.119Z,98300.38
2022-07-25T01:23:51.589Z,98295.16
2022-07-25T01:24:54.641Z,98303.13
2022-07-25T01:26:01.082Z,98301.59
2022-07-25T01:27:04.186Z,98300.00
2022-07-25T01:28:07.180Z,98300.78
2022-07-25T01:29:10.245Z,98301.72
2022-07-25T01:30:15.208Z,98298.06
2022-07-25T01:31:18.540Z,98302.72
2022-07-25T01:32:21.532Z,98296.50
2022-07-25T01:33:24.559Z,98302.81
2022-07-25T01:34:31.044Z,98302.03
2022-07-25T01:35:34.198Z,98298.59
2022-07-25T01:36:37.095Z,98297.22
2022-07-25T01:37:40.515Z,98291.75
2022-07-25T01:38:48.729Z,98295.31
2022-07-25T01:39:51.958Z,98296.50
2022-07-25T01:40:54.974Z,98301.63
2022-07-25T01:41:57.891Z,98286.97
2022-07-25T01:43:00.952Z,98293.31
2022-07-25T01:44:04.599Z,98293.22
2022-07-25T01:45:08.415Z,98290.22
2022-07-25T01:46:11.971Z,98294.06
2022-07-25T01:47:15.278Z,98291.47
2022-07-25T01:48:18.244Z,98297.00
2022-07-25T01:49:23.153Z,98293.66
2022-07-25T01:50:26.372Z,98297.06
2022-07-25T01:51:29.398Z,98292.44
2022-07-25T01:52:32.620Z,98300.00
2022-07-25T01:53:35.551Z,98296.81
2022-07-25T01:54:40.313Z,98298.28
2022-07-25T01:55:46.221Z,98297.78
2022-07-25T01:56:49.680Z,98301.28
2022-07-25T01:57:52.562Z,98301.41
2022-07-25T01:58:55.692Z,98295.47
2022-07-25T02:00:00.179Z,98295.22
2022-07-25T02:01:03.543Z,98293.44
2022-07-25T02:02:08.251Z,98289.31
2022-07-25T02:03:29.974Z,98292.03
2022-07-25T02:04:33.350Z,98283.88
2022-07-25T02:05:36.449Z,98285.22
2022-07-25T02:06:41.795Z,98284.69
2022-07-25T02:07:44.933Z,98286.50
2022-07-25T02:08:48.081Z,98281.94
2022-07-25T02:09:56.574Z,98287.56
2022-07-25T02:11:00.439Z,98285.41
2022-07-25T02:12:03.542Z,98286.31
2022-07-25T02:13:06.643Z,98286.66
2022-07-25T02:14:09.821Z,98284.00
2022-07-25T02:15:12.997Z,98271.41
2022-07-25T02:16:16.151Z,98286.37
2022-07-25T02:17:19.233Z,98277.81
2022-07-25T02:18:24.242Z,98284.56
2022-07-25T02:19:27.254Z,98279.00
2022-07-25T02:20:30.162Z,98282.84
2022-07-25T02:21:33.368Z,98280.41
2022-07-25T02:22:36.297Z,98282.56
2022-07-25T02:23:39.417Z,98281.53
2022-07-25T02:24:42.550Z,98273.97
2022-07-25T02:25:45.515Z,98286.09
2022-07-25T02:26:48.504Z,98281.03
2022-07-25T02:27:51.512Z,98283.88
2022-07-25T02:28:54.519Z,98279.37
2022-07-25T02:29:57.615Z,98284.78
2022-07-25T02:31:01.452Z,98281.75
2022-07-25T02:32:04.837Z,98289.03
2022-07-25T02:33:07.817Z,98287.94
2022-07-25T02:34:10.822Z,98280.09
2022-07-25T02:35:14.159Z,98281.94
2022-07-25T02:36:17.599Z,98282.75
2022-07-25T02:37:20.534Z,98286.00
2022-07-25T02:38:23.604Z,98282.75
2022-07-25T02:39:32.921Z,98293.06
2022-07-25T02:40:35.993Z,98284.13
2022-07-25T02:41:39.261Z,98286.78
2022-07-25T02:42:42.269Z,98281.03
2022-07-25T02:43:45.250Z,98287.63
2022-07-25T02:44:48.151Z,98288.69
2022-07-25T02:45:51.314Z,98287.34
2022-07-25T02:46:54.281Z,98283.56
2022-07-25T02:47:57.277Z,98285.00
2022-07-25T02:49:00.295Z,98282.62
2022-07-25T02:50:03.399Z,98290.91
2022-07-25T02:51:06.758Z,98288.59
2022-07-25T02:52:09.740Z,98284.66
2022-07-25T02:53:12.759Z,98283.44
2022-07-25T02:54:16.309Z,98287.94
2022-07-25T02:55:19.577Z,98290.03
2022-07-25T02:56:22.687Z,98287.31
2022-07-25T02:57:26.736Z,98295.63
2022-07-25T02:58:29.867Z,98290.22
2022-07-25T02:59:32.960Z,98290.91
2022-07-25T03:00:36.514Z,98293.94
2022-07-25T03:01:43.217Z,98294.72
2022-07-25T03:02:46.653Z,98300.44
2022-07-25T03:03:49.676Z,98297.44
2022-07-25T03:04:52.706Z,98300.16
2022-07-25T03:05:55.728Z,98300.25
2022-07-25T03:07:02.099Z,98298.19
2022-07-25T03:08:05.454Z,98300.94
2022-07-25T03:09:08.435Z,98305.06
2022-07-25T03:10:13.540Z,98296.81
2022-07-25T03:11:17.056Z,98295.91
2022-07-25T03:12:23.159Z,98296.66
2022-07-25T03:13:26.192Z,98292.88
2022-07-25T03:14:29.178Z,98294.91
2022-07-25T03:15:32.176Z,98296.03
2022-07-25T03:16:35.390Z,98302.53
2022-07-25T03:17:39.109Z,98299.94
2022-07-25T03:18:42.069Z,98298.75
2022-07-25T03:19:45.110Z,98299.78
2022-07-25T03:20:48.112Z,98306.22
2022-07-25T03:21:51.040Z,98301.91
2022-07-25T03:22:54.362Z,98302.94
2022-07-25T03:23:57.352Z,98303.81
2022-07-25T03:25:01.015Z,98306.84
2022-07-25T03:26:04.026Z,98301.66
2022-07-25T03:27:07.062Z,98306.91
2022-07-25T03:28:10.115Z,98306.72
2022-07-25T03:29:13.130Z,98301.53
2022-07-25T03:30:16.245Z,98300.34
2022-07-25T03:31:19.249Z,98300.34
2022-07-25T03:32:23.523Z,98308.47
2022-07-25T03:33:26.605Z,98306.50
2022-07-25T03:34:29.702Z,98302.47
2022-07-25T03:35:32.720Z,98308.50
2022-07-25T03:36:38.208Z,98305.66
2022-07-25T03:37:41.344Z,98311.63
2022-07-25T03:38:45.170Z,98304.81
2022-07-25T03:39:48.178Z,98305.31
2022-07-25T03:40:51.457Z,98306.16
2022-07-25T03:41:55.450Z,98305.19
2022-07-25T03:42:58.382Z,98300.31
2022-07-25T03:44:01.313Z,98302.22
2022-07-25T03:45:05.357Z,98305.97
2022-07-25T03:46:08.864Z,98304.50
2022-07-25T03:47:20.465Z,98314.22
2022-07-25T03:48:23.986Z,98313.34
2022-07-25T03:49:27.034Z,98310.28
2022-07-25T03:50:30.097Z,98316.69
2022-07-25T03:51:33.086Z,98306.72
2022-07-25T03:52:36.138Z,98309.16
2022-07-25T03:53:59.118Z,98309.94
2022-07-25T03:55:02.137Z,98315.75
2022-07-25T03:56:05.429Z,98304.97
2022-07-25T03:57:08.582Z,98304.19
2022-07-25T03:58:11.753Z,98311.81
2022-07-25T03:59:21.066Z,98304.78
2022-07-25T04:00:24.148Z,98305.75
2022-07-25T04:01:27.191Z,98314.22
2022-07-25T04:02:30.202Z,98310.63
2022-07-25T04:03:34.520Z,98312.94
2022-07-25T04:04:37.629Z,98310.44
2022-07-25T04:05:45.522Z,98315.31
2022-07-25T04:06:50.655Z,98312.84
2022-07-25T04:07:53.731Z,98308.13
2022-07-25T04:08:56.868Z,98311.56
2022-07-25T04:09:59.723Z,98310.00
2022-07-25T04:11:02.699Z,98313.59
2022-07-25T04:12:06.252Z,98317.78
2022-07-25T04:13:09.324Z,98320.22
2022-07-25T04:14:12.731Z,98306.59
2022-07-25T04:15:16.735Z,98321.69
2022-07-25T04:16:22.403Z,98317.91
2022-07-25T04:17:26.168Z,98313.19
2022-07-25T04:18:29.237Z,98310.88
2022-07-25T04:19:32.531Z,98309.59
2022-07-25T04:20:37.781Z,98316.53
2022-07-25T04:21:40.777Z,98314.69
2022-07-25T04:22:46.913Z,98315.84
2022-07-25T04:23:50.722Z,98317.34
2022-07-25T04:24:53.681Z,98320.69
2022-07-25T04:26:00.038Z,98320.72
2022-07-25T04:27:02.987Z,98320.19
2022-07-25T04:28:06.333Z,98324.37
2022-07-25T04:29:09.293Z,98327.22
2022-07-25T04:30:12.765Z,98322.22
2022-07-25T04:31:27.053Z,98328.41
2022-07-25T04:32:30.050Z,98324.87
2022-07-25T04:33:33.249Z,98325.56
2022-07-25T04:34:36.364Z,98328.78
2022-07-25T04:35:39.484Z,98326.03
2022-07-25T04:36:42.707Z,98325.31
2022-07-25T04:37:45.693Z,98323.63
2022-07-25T04:38:48.846Z,98323.97
2022-07-25T04:39:51.826Z,98328.41
2022-07-25T04:40:55.051Z,98328.56
2022-07-25T04:42:02.090Z,98329.31
2022-07-25T04:43:05.677Z,98333.78
2022-07-25T04:44:09.302Z,98331.13
2022-07-25T04:45:13.151Z,98330.34
2022-07-25T04:46:23.408Z,98330.84
2022-07-25T04:47:26.355Z,98326.38
2022-07-25T04:48:29.572Z,98326.03
2022-07-25T04:49:32.778Z,98327.94
2022-07-25T04:50:35.891Z,98320.81
2022-07-25T04:51:38.862Z,98325.13
2022-07-25T04:52:41.954Z,98319.63
2022-07-25T04:53:46.259Z,98330.25
2022-07-25T04:54:53.087Z,98328.69
2022-07-25T04:55:55.996Z,98326.75
2022-07-25T04:56:58.923Z,98324.56
2022-07-25T04:58:01.797Z,98329.69
2022-07-25T04:59:06.451Z,98335.47
2022-07-25T05:00:11.834Z,98329.19
2022-07-25T05:01:15.004Z,98337.03
2022-07-25T05:02:18.189Z,98334.66
2022-07-25T05:03:21.266Z,98324.78
2022-07-25T05:04:24.255Z,98331.09
2022-07-25T05:05:27.405Z,98319.47
2022-07-25T05:06:30.405Z,98331.56
2022-07-25T05:07:33.401Z,98333.88
2022-07-25T05:08:36.387Z,98330.22
2022-07-25T05:09:39.636Z,98333.22
2022-07-25T05:10:43.249Z,98330.56
2022-07-25T05:11:49.502Z,98325.31
2022-07-25T05:12:54.791Z,98329.81
2022-07-25T05:13:57.804Z,98329.69
2022-07-25T05:15:00.912Z,98326.78
2022-07-25T05:16:04.400Z,98334.91
2022-07-25T05:17:07.449Z,98333.50
2022-07-25T05:18:10.523Z,98330.94
2022-07-25T05:19:13.630Z,98336.31
2022-07-25T05:20:16.717Z,98327.28
2022-07-25T05:21:19.761Z,98332.78
2022-07-25T05:22:28.005Z,98331.03
2022-07-25T05:23:31.674Z,98324.66
2022-07-25T05:24:36.174Z,98331.37
2022-07-25T05:25:39.495Z,98324.31
2022-07-25T05:26:42.642Z,98321.88
2022-07-25T05:27:45.860Z,98335.59
2022-07-25T05:28:48.894Z,98328.41
2022-07-25T05:29:51.885Z,98325.53
2022-07-25T05:30:54.904Z,98333.75
2022-07-25T05:31:58.015Z,98322.03
2022-07-25T05:33:01.098Z,98321.34
2022-07-25T05:34:04.349Z,98322.97
2022-07-25T05:35:08.711Z,98332.13
2022-07-25T05:36:11.751Z,98334.38
2022-07-25T05:37:15.289Z,98331.53
2022-07-25T05:38:22.124Z,98323.63
2022-07-25T05:39:25.180Z,98319.22
2022-07-25T05:40:28.638Z,98318.16
2022-07-25T05:41:31.879Z,98317.81
2022-07-25T05:42:35.191Z,98323.22
2022-07-25T05:43:38.161Z,98322.47
2022-07-25T05:44:41.282Z,98323.22
2022-07-25T05:45:44.542Z,98325.16
2022-07-25T05:46:47.630Z,98317.53
2022-07-25T05:47:50.594Z,98316.72
2022-07-25T05:48:53.872Z,98313.84
2022-07-25T05:49:56.958Z,98318.50
2022-07-25T05:50:59.962Z,98315.72
2022-07-25T05:52:02.928Z,98319.19
2022-07-25T05:53:14.088Z,98310.56
2022-07-25T05:54:17.294Z,98309.50
2022-07-25T05:55:20.363Z,98316.37
2022-07-25T05:56:23.462Z,98318.84
2022-07-25T05:57:30.118Z,98318.38
2022-07-25T05:58:33.453Z,98317.94
2022-07-25T05:59:36.428Z,98311.47
2022-07-25T06:00:39.588Z,98318.47
2022-07-25T06:01:42.678Z,98318.84
2022-07-25T06:02:45.978Z,98323.06
2022-07-25T06:03:49.118Z,98316.25
2022-07-25T06:04:52.144Z,98311.22
2022-07-25T06:05:56.611Z,98319.22
2022-07-25T06:07:03.117Z,98315.31
2022-07-25T06:08:06.885Z,98312.03
2022-07-25T06:09:09.895Z,98318.91
2022-07-25T06:10:13.360Z,98311.72
2022-07-25T06:11:16.296Z,98320.59
2022-07-25T06:12:19.398Z,98316.34
2022-07-25T06:13:22.433Z,98314.09
2022-07-25T06:14:26.873Z,98320.91
2022-07-25T06:15:29.796Z,98312.94
2022-07-25T06:16:32.671Z,98318.34
2022-07-25T06:17:35.800Z,98313.31
2022-07-25T06:18:38.457Z,98326.75
2022-07-25T06:19:41.210Z,98314.91
2022-07-25T06:20:43.900Z,98324.09
2022-07-25T06:21:46.655Z,98319.16
2022-07-25T06:22:49.613Z,98317.28
2022-07-25T06:23:52.466Z,98314.97
2022-07-25T06:24:55.161Z,98323.38
2022-07-25T06:25:57.995Z,98314.94
2022-07-25T06:27:02.074Z,98318.47
2022-07-25T06:28:05.140Z,98321.91
2022-07-25T06:29:07.885Z,98316.59
2022-07-25T06:30:19.836Z,98321.91
2022-07-25T06:31:23.880Z,98318.78
2022-07-25T06:32:26.805Z,98316.50
2022-07-25T06:33:29.699Z,98316.53
2022-07-25T06:34:32.532Z,98316.59
2022-07-25T06:35:35.567Z,98313.84
2022-07-25T06:36:38.352Z,98307.03
2022-07-25T06:37:41.126Z,98315.44
2022-07-25T06:38:44.062Z,98309.31
2022-07-25T06:39:46.695Z,98314.31
2022-07-25T06:40:53.031Z,98317.75
2022-07-25T06:41:56.315Z,98307.81
2022-07-25T06:42:59.182Z,98302.84
2022-07-25T06:44:01.942Z,98304.34
2022-07-25T06:45:06.806Z,98309.31
2022-07-25T06:46:10.159Z,98302.44
2022-07-25T06:47:13.571Z,98300.91
2022-07-25T06:48:17.305Z,98300.91
2022-07-25T06:49:20.232Z,98313.16
2022-07-25T06:50:22.983Z,98297.06
2022-07-25T06:51:26.246Z,98307.03
2022-07-25T06:52:29.037Z,98296.28
2022-07-25T06:53:31.840Z,98299.31
2022-07-25T06:54:35.363Z,98301.22
2022-07-25T06:55:38.123Z,98301.94
2022-07-25T06:56:41.296Z,98304.28
2022-07-25T06:57:44.276Z,98300.78
2022-07-25T06:58:46.969Z,98295.00
2022-07-25T06:59:49.925Z,98290.34
2022-07-25T07:00:52.710Z,98297.59
2022-07-25T07:01:55.608Z,98303.34
2022-07-25T07:03:01.661Z,98300.78
2022-07-25T07:04:05.285Z,98298.19
2022-07-25T07:05:08.563Z,98303.53
2022-07-25T07:06:11.279Z,98302.78
2022-07-25T07:07:14.346Z,98302.06
2022-07-25T07:08:17.122Z,98297.44
2022-07-25T07:09:19.812Z,98302.34
2022-07-25T07:10:22.884Z,98300.03
2022-07-25T07:11:25.770Z,98296.66
2022-07-25T07:12:28.361Z,98292.47
2022-07-25T07:13:31.205Z,98300.84
2022-07-25T07:14:33.867Z,98295.09
2022-07-25T07:15:37.790Z,98291.34
2022-07-25T07:16:41.803Z,98293.56
2022-07-25T07:17:44.905Z,98292.06
2022-07-25T07:18:49.447Z,98297.78
2022-07-25T07:19:52.558Z,98301.53
2022-07-25T07:20:56.338Z,98293.78
2022-07-25T07:21:59.116Z,98299.16
2022-07-25T07:23:01.880Z,98291.47
2022-07-25T07:24:04.727Z,98292.13
2022-07-25T07:25:28.350Z,98293.59
2022-07-25T07:26:31.413Z,98296.78
2022-07-25T07:27:34.176Z,98298.84
2022-07-25T07:28:37.146Z,98298.44
2022-07-25T07:29:39.780Z,98298.38
2022-07-25T07:32:07.236Z,98296.09
2022-07-25T07:33:10.186Z,98294.41
2022-07-25T07:34:18.049Z,98294.09
2022-07-25T07:35:27.444Z,98293.41
2022-07-25T07:36:31.054Z,98286.81
2022-07-25T07:37:38.745Z,98291.19
2022-07-25T07:38:45.233Z,98288.06
2022-07-25T07:39:47.823Z,98291.25
2022-07-25T07:40:50.656Z,98299.53
2022-07-25T07:41:53.664Z,98289.38
2022-07-25T07:42:58.691Z,98295.50
2022-07-25T07:44:01.456Z,98294.63
2022-07-25T07:45:10.322Z,98290.19
2022-07-25T07:46:13.188Z,98289.94
2022-07-25T07:47:15.915Z,98294.22
2022-07-25T07:48:18.682Z,98302.81
2022-07-25T07:49:22.152Z,98294.50
2022-07-25T07:50:27.294Z,98289.50
2022-07-25T07:51:30.039Z,98293.00
2022-07-25T07:52:32.735Z,98300.00
2022-07-25T07:53:54.305Z,98287.84
2022-07-25T07:55:15.596Z,98292.03
2022-07-25T07:56:22.242Z,98298.09
2022-07-25T07:57:24.881Z,98288.31
2022-07-25T07:58:27.764Z,98291.34
2022-07-25T07:59:30.481Z,98292.97
2022-07-25T08:00:36.483Z,98291.63
2022-07-25T08:01:39.424Z,98290.81
2022-07-25T08:02:53.825Z,98284.66
2022-07-25T08:03:56.662Z,98287.13
2022-07-25T08:04:59.362Z,98281.91
2022-07-25T08:06:06.065Z,98285.19
2022-07-25T08:07:10.497Z,98276.94
2022-07-25T08:08:15.216Z,98287.38
2022-07-25T08:09:18.021Z,98286.06
2022-07-25T08:10:26.294Z,98281.88
2022-07-25T08:11:29.130Z,98283.19
2022-07-25T08:12:31.899Z,98285.72
2022-07-25T08:13:34.964Z,98276.03
2022-07-25T08:14:37.708Z,98267.28
2022-07-25T08:15:41.548Z,98283.88
2022-07-25T08:16:44.369Z,98285.13
2022-07-25T08:17:50.427Z,98283.19
2022-07-25T08:18:53.354Z,98281.78
2022-07-25T08:20:02.028Z,98277.09
2022-07-25T08:21:12.470Z,98281.22
2022-07-25T08:22:15.209Z,98277.13
2022-07-25T08:23:18.625Z,98275.00
2022-07-25T08:24:21.260Z,98274.72
2022-07-25T08:25:24.081Z,98281.03
2022-07-25T08:26:28.279Z,98280.50
2022-07-25T08:27:31.540Z,98273.75
2022-07-25T08:28:34.580Z,98273.16
2022-07-25T08:29:37.539Z,98278.00
2022-07-25T08:30:41.704Z,98272.47
2022-07-25T08:31:44.368Z,98270.28
2022-07-25T08:32:57.740Z,98269.53
2022-07-25T08:34:00.541Z,98265.25
2022-07-25T08:35:05.110Z,98263.59
2022-07-25T08:36:11.766Z,98267.03
2022-07-25T08:37:14.864Z,98266.84
2022-07-25T08:38:18.827Z,98263.72
2022-07-25T08:39:21.545Z,98262.34
2022-07-25T08:40:25.848Z,98260.34
2022-07-25T08:41:29.073Z,98266.19
2022-07-25T08:42:34.168Z,98263.03
2022-07-25T08:43:38.346Z,98264.97
2022-07-25T08:44:44.260Z,98267.75
2022-07-25T08:45:53.202Z,98267.53
2022-07-25T08:46:56.149Z,98263.81
2022-07-25T08:47:59.234Z,98259.09
2022-07-25T08:49:02.740Z,98260.06
2022-07-25T08:50:08.588Z,98259.22
2022-07-25T08:51:12.642Z,98265.06
2022-07-25T08:52:15.687Z,98259.09
2022-07-25T08:53:36.119Z,98260.91
2022-07-25T08:54:39.389Z,98261.66
2022-07-25T08:55:45.373Z,98259.97
2022-07-25T08:56:48.166Z,98259.09
2022-07-25T08:57:53.298Z,98256.19
2022-07-25T08:58:59.219Z,98265.16
2022-07-25T09:00:03.134Z,98258.50
2022-07-25T09:01:07.306Z,98259.88
2022-07-25T09:02:14.932Z,98258.53
2022-07-25T09:03:18.103Z,98260.59
2022-07-25T09:04:21.599Z,98253.19
2022-07-25T09:05:25.984Z,98245.47
2022-07-25T09:06:28.949Z,98251.41
2022-07-25T09:07:40.009Z,98246.38
2022-07-25T09:09:00.650Z,98242.75
2022-07-25T09:10:16.369Z,98245.44
2022-07-25T09:11:36.075Z,98248.84
2022-07-25T09:12:39.554Z,98242.09
2022-07-25T09:13:42.429Z,98244.06
2022-07-25T09:14:45.270Z,98231.28
2022-07-25T09:15:51.461Z,98237.94
2022-07-25T09:16:55.050Z,98235.31
2022-07-25T09:18:08.743Z,98232.84
2022-07-25T09:19:16.362Z,98237.03
2022-07-25T09:20:19.150Z,98234.84
2022-07-25T09:21:22.117Z,98239.69
2022-07-25T09:22:24.893Z,98240.78
2022-07-25T09:23:30.757Z,98241.56
2022-07-25T09:24:34.599Z,98241.69
2022-07-25T09:25:38.145Z,98242.13
2022-07-25T09:26:49.531Z,98244.78
2022-07-25T09:27:52.872Z,98237.03
2022-07-25T09:28:57.186Z,98232.94
2022-07-25T09:30:00.101Z,98228.84
2022-07-25T09:31:03.097Z,98230.44
2022-07-25T09:32:32.150Z,98234.38
2022-07-25T09:33:35.008Z,98236.19
2022-07-25T09:34:40.211Z,98234.13
2022-07-25T09:35:42.986Z,98238.13
2022-07-25T09:36:55.800Z,98236.34
2022-07-25T09:38:12.581Z,98228.91
2022-07-25T09:39:15.479Z,98221.81
2022-07-25T09:40:19.944Z,98225.56
2022-07-25T09:41:23.269Z,98220.81
2022-07-25T09:42:32.618Z,98225.69
2022-07-25T09:43:39.266Z,98228.41
2022-07-25T09:44:42.098Z,98221.00
2022-07-25T09:45:52.113Z,98221.97
2022-07-25T09:46:54.912Z,98217.13
2022-07-25T09:48:00.749Z,98215.34
2022-07-25T09:49:04.124Z,98215.91
2022-07-25T09:50:09.419Z,98217.44
2022-07-25T09:51:12.951Z,98219.06
2022-07-25T09:52:17.502Z,98229.62
2022-07-25T09:53:20.895Z,98225.44
2022-07-25T09:54:24.284Z,98219.81
2022-07-25T09:55:27.791Z,98208.34
2022-07-25T09:56:31.869Z,98212.25
2022-07-25T09:57:34.548Z,98206.19
2022-07-25T09:58:37.450Z,98208.47
2022-07-25T09:59:40.484Z,98208.72
2022-07-25T10:00:43.859Z,98208.66
2022-07-25T10:01:56.617Z,98202.94
2022-07-25T10:03:29.572Z,98208.59
2022-07-25T10:04:44.580Z,98195.66
2022-07-25T10:06:02.673Z,98207.16
2022-07-25T10:07:11.029Z,98202.75
2022-07-25T10:08:15.372Z,98201.34
2022-07-25T10:09:18.478Z,98195.94
2022-07-25T10:10:39.995Z,98201.75
2022-07-25T10:12:03.228Z,98187.50
2022-07-25T10:13:11.657Z,98195.25
2022-07-25T10:14:14.600Z,98184.56
2022-07-25T10:15:17.404Z,98181.78
2022-07-25T10:16:23.999Z,98193.28
2022-07-25T10:17:26.904Z,98189.63
2022-07-25T10:18:31.030Z,98176.53
2022-07-25T10:19:50.825Z,98177.53
2022-07-25T10:21:28.747Z,98178.78
2022-07-25T10:22:57.388Z,98194.37
2022-07-25T10:24:04.615Z,98186.25
2022-07-25T10:25:13.858Z,98181.81
2022-07-25T10:26:16.766Z,98175.81
2022-07-25T10:27:27.779Z,98178.34
2022-07-25T10:28:39.682Z,98174.22
2022-07-25T10:29:42.770Z,98172.88
2022-07-25T10:30:45.888Z,98171.78
2022-07-25T10:31:51.416Z,98170.13
2022-07-25T10:33:04.065Z,98167.34
2022-07-25T10:34:10.618Z,98166.38
2022-07-25T10:35:17.630Z,98167.88
2022-07-25T10:36:21.940Z,98160.34
2022-07-25T10:37:32.761Z,98172.81
2022-07-25T10:38:35.484Z,98170.84
2022-07-25T10:39:44.223Z,98175.25
2022-07-25T10:40:48.240Z,98167.72
2022-07-25T10:42:00.457Z,98171.31
2022-07-25T10:43:05.942Z,98159.47
2022-07-25T10:44:16.127Z,98155.22
2022-07-25T10:45:18.910Z,98151.72
2022-07-25T10:46:28.115Z,98150.31
2022-07-25T10:47:38.365Z,98154.41
2022-07-25T10:48:42.386Z,98145.50
2022-07-25T10:50:16.441Z,98149.72
2022-07-25T10:51:14.037Z,98157.56
2022-07-25T10:52:18.897Z,98148.22
2022-07-25T10:53:36.100Z,98144.13
2022-07-25T10:54:39.566Z,98151.09
2022-07-25T10:55:42.391Z,98141.56
2022-07-25T10:56:54.040Z,98144.72
2022-07-25T10:58:21.616Z,98150.41
2022-07-25T10:59:28.161Z,98144.97
2022-07-25T11:00:32.221Z,98151.47
2022-07-25T11:01:38.507Z,98141.78
2022-07-25T11:02:41.618Z,98140.72
2022-07-25T11:03:47.360Z,98150.75
2022-07-25T11:05:12.250Z,98136.69
2022-07-25T11:06:16.183Z,98135.31
2022-07-25T11:07:19.192Z,98135.59
2022-07-25T11:08:31.664Z,98127.28
2022-07-25T11:09:34.462Z,98133.84
2022-07-25T11:10:37.146Z,98130.31
2022-07-25T11:11:48.184Z,98133.09
2022-07-25T11:12:50.878Z,98132.66
2022-07-25T11:13:53.631Z,98138.72
2022-07-25T11:15:09.319Z,98123.16
2022-07-25T11:16:12.372Z,98124.34
2022-07-25T11:17:20.041Z,98130.12
2022-07-25T11:18:37.016Z,98117.44
2022-07-25T11:19:41.092Z,98120.91
2022-07-25T11:20:43.848Z,98114.31
2022-07-25T11:21:51.932Z,98114.22
2022-07-25T11:22:55.961Z,98113.19
2022-07-25T11:23:58.763Z,98111.50
2022-07-25T11:25:03.278Z,98108.94
2022-07-25T11:26:12.041Z,98110.44
2022-07-25T11:27:33.575Z,98108.28
2022-07-25T11:28:49.103Z,98106.53
2022-07-25T11:29:52.547Z,98108.84
2022-07-25T11:31:04.044Z,98103.87
2022-07-25T11:32:09.690Z,98103.66
2022-07-25T11:33:17.674Z,98102.00
2022-07-25T11:34:26.756Z,98103.94
2022-07-25T11:35:32.472Z,98096.78
2022-07-25T11:36:35.896Z,98093.38
2022-07-25T11:37:40.737Z,98085.38
2022-07-25T11:38:49.490Z,98090.63
2022-07-25T11:39:53.067Z,98087.25
2022-07-25T11:40:56.144Z,98078.47
2022-07-25T11:42:03.134Z,98080.03
2022-07-25T11:43:05.856Z,98083.16
2022-07-25T11:44:08.659Z,98080.31
2022-07-25T11:45:21.966Z,98081.37
2022-07-25T11:46:24.832Z,98075.59
2022-07-25T11:47:29.709Z,98077.50
2022-07-25T11:48:39.125Z,98073.06
2022-07-25T11:49:46.979Z,98066.06
2022-07-25T11:50:49.679Z,98072.97
2022-07-25T11:51:52.458Z,98082.31
2022-07-25T11:53:00.991Z,98071.31
2022-07-25T11:54:10.742Z,98071.31
2022-07-25T11:55:18.167Z,98070.13
2022-07-25T11:57:51.279Z,98071.16
2022-07-25T11:59:02.398Z,98068.75
2022-07-25T12:00:10.395Z,98068.41
2022-07-25T12:01:15.811Z,98055.75
2022-07-25T12:02:23.836Z,98062.59
2022-07-25T12:03:26.875Z,98053.53
2022-07-25T12:04:29.728Z,98054.88
2022-07-25T12:05:33.875Z,98056.63
2022-07-25T12:06:36.711Z,98053.09
2022-07-25T12:07:46.445Z,98053.31
2022-07-25T12:08:49.294Z,98054.84
2022-07-25T12:09:58.492Z,98045.34
2022-07-25T12:11:01.262Z,98045.28
2022-07-25T12:12:04.766Z,98044.44
2022-07-25T12:13:09.732Z,98047.19
2022-07-25T12:14:13.136Z,98051.53
2022-07-25T12:15:20.114Z,98037.13
2022-07-25T12:16:22.852Z,98054.69
2022-07-25T12:17:25.533Z,98053.47
2022-07-25T12:18:28.997Z,98049.53
2022-07-25T12:19:32.517Z,98049.37
2022-07-25T12:20:38.931Z,98042.63
2022-07-25T12:21:41.744Z,98042.44
2022-07-25T12:22:45.386Z,98046.56
2022-07-25T12:23:48.180Z,98041.87
2022-07-25T12:24:50.928Z,98030.50
2022-07-25T12:25:53.664Z,98023.84
2022-07-25T12:26:56.332Z,98031.41
2022-07-25T12:28:00.328Z,98033.25
2022-07-25T12:29:03.246Z,98028.72
2022-07-25T12:30:07.879Z,98022.97
2022-07-25T12:31:10.836Z,98026.81
2022-07-25T12:32:13.768Z,98031.12
2022-07-25T12:33:17.513Z,98018.91
2022-07-25T12:34:20.329Z,98029.34
2022-07-25T12:35:23.896Z,98015.25
2022-07-25T12:36:26.771Z,98017.50
2022-07-25T12:37:29.495Z,98011.19
2022-07-25T12:38:32.240Z,98010.72
2022-07-25T12:39:34.918Z,98016.91
2022-07-25T12:40:38.245Z,98013.78
2022-07-25T12:41:43.159Z,98010.19
2022-07-25T12:42:46.591Z,98012.09
2022-07-25T12:43:49.996Z,98005.88
2022-07-25T12:44:52.712Z,98005.13